Time;durP1;ratioP1;P1;durP2;ratioP2;P2;SDS_P1;SDS_P2;PMS_P1;PMS_P2;Temp;Humidity;BMP_temperature;BMP_pressure;BME280_temperature;BME280_humidity;BME280_pressure;Samples;Min_cycle;Max_cycle;Signal;HPM_P1;HPM_P2
2021/04/22 00:00:31;;;;;;;8.60;2.05;;;5.20;99.90;;;;;;4340163;32;20130;-58
2021/04/22 00:02:57;;;;;;;8.13;2.60;;;5.20;99.90;;;;;;4354657;32;20089;-59
2021/04/22 00:05:30;;;;;;;7.32;2.00;;;5.20;99.90;;;;;;4352202;32;20085;-58
2021/04/22 00:07:58;;;;;;;9.80;1.80;;;5.20;99.90;;;;;;4340813;32;20078;-60
2021/04/22 00:10:45;;;;;;;6.45;1.62;;;5.20;99.90;;;;;;4352609;32;20148;-58
2021/04/22 00:13:14;;;;;;;10.10;2.28;;;5.10;99.90;;;;;;4341864;32;20058;-58
2021/04/22 00:15:40;;;;;;;6.10;1.90;;;5.10;99.90;;;;;;4339989;32;20070;-60
2021/04/22 00:18:08;;;;;;;6.43;1.87;;;5.20;99.90;;;;;;4339553;32;20182;-59
2021/04/22 00:20:37;;;;;;;5.45;2.05;;;5.10;99.90;;;;;;4339900;32;20090;-59
2021/04/22 00:23:08;;;;;;;6.40;2.10;;;5.10;99.90;;;;;;4339921;32;20499;-59
2021/04/22 00:25:34;;;;;;;8.75;2.25;;;5.20;99.90;;;;;;4365135;32;20081;-58
2021/04/22 00:28:05;;;;;;;6.53;2.28;;;5.10;99.90;;;;;;4340465;32;20163;-58
2021/04/22 00:30:31;;;;;;;7.93;2.42;;;5.10;99.90;;;;;;4351978;32;20519;-59
2021/04/22 00:32:57;;;;;;;7.32;2.22;;;5.20;99.90;;;;;;4314999;32;20512;-58
2021/04/22 00:35:24;;;;;;;9.10;3.10;;;5.10;99.90;;;;;;4340059;32;20082;-59
2021/04/22 00:37:50;;;;;;;11.07;2.87;;;5.10;99.90;;;;;;4352015;32;20530;-58
2021/04/22 00:40:23;;;;;;;16.25;2.45;;;5.10;99.90;;;;;;4339348;32;20062;-60
2021/04/22 00:42:50;;;;;;;13.68;3.55;;;5.10;99.90;;;;;;4327833;32;20078;-58
2021/04/22 00:45:17;;;;;;;14.07;3.10;;;5.20;99.90;;;;;;4339605;32;20085;-59
2021/04/22 00:47:44;;;;;;;10.50;3.00;;;5.20;99.90;;;;;;4339586;32;20069;-58
2021/04/22 00:50:22;;;;;;;11.90;2.83;;;5.20;99.90;;;;;;4326985;32;20518;-57
2021/04/22 00:52:51;;;;;;;14.30;3.10;;;5.20;99.90;;;;;;4339479;32;20146;-58
2021/04/22 00:55:17;;;;;;;17.98;3.80;;;5.30;99.90;;;;;;4339422;32;20092;-58
2021/04/22 00:57:43;;;;;;;22.30;4.40;;;5.30;99.90;;;;;;4339649;32;20073;-58
2021/04/22 01:00:11;;;;;;;27.48;4.55;;;5.30;99.90;;;;;;4351071;32;20085;-57
2021/04/22 01:02:37;;;;;;;23.05;4.85;;;5.30;99.90;;;;;;4326686;32;20591;-58
2021/04/22 01:05:22;;;;;;;29.17;6.45;;;5.30;99.90;;;;;;4327769;32;20066;-57
2021/04/22 01:07:48;;;;;;;25.62;4.35;;;5.40;99.90;;;;;;4354204;32;20066;-58
2021/04/22 01:10:17;;;;;;;27.75;5.47;;;5.30;99.90;;;;;;4339067;32;20151;-58
2021/04/22 01:12:43;;;;;;;28.50;4.47;;;5.30;99.90;;;;;;4341720;32;20062;-59
2021/04/22 01:15:14;;;;;;;23.45;4.97;;;5.30;99.90;;;;;;4353781;32;20085;-58
2021/04/22 01:17:40;;;;;;;25.23;5.10;;;5.30;99.90;;;;;;4352143;32;20093;-59
2021/04/22 01:20:21;;;;;;;25.05;4.47;;;5.30;99.90;;;;;;4339325;32;20086;-59
2021/04/22 01:22:48;;;;;;;27.13;4.53;;;5.30;99.90;;;;;;4364797;32;20155;-58
2021/04/22 01:25:23;;;;;;;24.90;5.20;;;5.30;99.90;;;;;;4339095;32;20512;-58
2021/04/22 01:27:49;;;;;;;31.25;5.78;;;5.30;99.90;;;;;;4351616;32;20170;-58
2021/04/22 01:30:19;;;;;;;21.12;5.93;;;5.30;99.90;;;;;;4350997;32;20163;-58
2021/04/22 01:32:46;;;;;;;26.27;4.53;;;5.30;99.90;;;;;;4351116;32;20073;-58
2021/04/22 01:35:15;;;;;;;26.85;5.28;;;5.30;99.90;;;;;;4338361;32;20544;-58
2021/04/22 01:37:41;;;;;;;26.10;5.70;;;5.20;99.90;;;;;;4338936;32;20070;-59
2021/04/22 01:40:09;;;;;;;34.55;6.62;;;5.20;99.90;;;;;;4350949;32;20089;-58
2021/04/22 01:42:35;;;;;;;38.08;6.10;;;5.20;99.90;;;;;;4351128;32;20093;-58
2021/04/22 01:45:01;;;;;;;32.72;5.57;;;5.30;99.90;;;;;;4363099;32;20452;-59
2021/04/22 01:47:27;;;;;;;35.03;6.22;;;5.30;99.90;;;;;;4350424;32;20551;-59
2021/04/22 01:49:54;;;;;;;33.42;7.95;;;5.30;99.90;;;;;;4351321;32;20448;-58
2021/04/22 01:52:20;;;;;;;36.45;6.60;;;5.30;99.90;;;;;;4351213;32;20545;-59
2021/04/22 01:54:46;;;;;;;33.70;6.37;;;5.30;99.90;;;;;;4339095;32;20080;-57
2021/04/22 01:57:13;;;;;;;37.80;5.90;;;5.30;99.90;;;;;;4350680;32;20066;-59
2021/04/22 01:59:39;;;;;;;42.03;7.60;;;5.30;99.90;;;;;;4350781;32;20083;-59
2021/04/22 02:02:05;;;;;;;39.20;7.28;;;5.30;99.90;;;;;;4350170;32;20516;-58
2021/04/22 02:04:31;;;;;;;39.65;6.55;;;5.30;99.90;;;;;;4350633;32;20065;-58
2021/04/22 02:06:58;;;;;;;30.92;6.10;;;5.30;99.90;;;;;;4326919;32;20062;-58
2021/04/22 02:09:24;;;;;;;34.33;6.97;;;5.30;99.90;;;;;;4339520;32;20650;-58
2021/04/22 02:11:50;;;;;;;43.08;6.35;;;5.30;99.90;;;;;;4364210;32;20140;-58
2021/04/22 02:14:16;;;;;;;43.55;8.18;;;5.30;99.90;;;;;;4336184;32;20466;-58
2021/04/22 02:16:42;;;;;;;33.28;6.55;;;5.30;99.90;;;;;;4335665;32;20137;-58
2021/04/22 02:19:08;;;;;;;42.42;6.68;;;5.30;99.90;;;;;;4347819;32;20153;-58
2021/04/22 02:21:34;;;;;;;46.50;7.97;;;5.30;99.90;;;;;;4347948;32;20074;-58
2021/04/22 02:24:01;;;;;;;59.58;8.00;;;5.30;99.90;;;;;;4347776;32;20147;-58
2021/04/22 02:26:27;;;;;;;50.80;7.68;;;5.40;99.90;;;;;;4348167;32;20175;-58
2021/04/22 02:28:53;;;;;;;51.78;8.25;;;5.40;99.90;;;;;;4360037;32;20073;-58
2021/04/22 02:31:19;;;;;;;50.85;8.00;;;5.30;99.90;;;;;;4338262;32;20078;-58
2021/04/22 02:33:46;;;;;;;47.53;9.48;;;5.40;99.90;;;;;;4363298;32;20074;-58
2021/04/22 02:36:13;;;;;;;56.72;8.32;;;5.40;99.90;;;;;;4338576;32;20085;-57
2021/04/22 02:38:39;;;;;;;52.15;7.85;;;5.40;99.90;;;;;;4338204;32;20063;-58
2021/04/22 02:41:05;;;;;;;55.90;9.38;;;5.50;99.90;;;;;;4350317;32;20418;-58
2021/04/22 02:43:31;;;;;;;43.87;6.60;;;5.50;99.90;;;;;;4350590;32;20083;-58
2021/04/22 02:45:58;;;;;;;65.82;10.45;;;5.40;99.90;;;;;;4362495;32;20081;-58
2021/04/22 02:48:24;;;;;;;64.25;9.52;;;5.50;99.90;;;;;;4350259;32;20482;-59
2021/04/22 02:50:53;;;;;;;54.45;9.43;;;5.40;99.90;;;;;;4338142;32;20082;-58
2021/04/22 02:53:20;;;;;;;55.00;7.68;;;5.50;99.90;;;;;;4350415;32;20512;-58
2021/04/22 02:55:47;;;;;;;48.10;8.88;;;5.50;99.90;;;;;;4350314;32;20096;-58
2021/04/22 02:58:14;;;;;;;61.00;8.95;;;5.50;99.90;;;;;;4350364;32;20081;-58
2021/04/22 03:00:41;;;;;;;47.83;10.68;;;5.60;99.90;;;;;;4337713;32;20081;-59
2021/04/22 03:03:07;;;;;;;68.22;9.05;;;5.60;99.90;;;;;;4350618;32;20082;-58
2021/04/22 03:05:34;;;;;;;73.03;12.25;;;5.70;99.90;;;;;;4338083;32;20086;-59
2021/04/22 03:08:00;;;;;;;88.07;12.15;;;5.70;99.90;;;;;;4363205;32;20071;-58
2021/04/22 03:10:27;;;;;;;77.82;11.23;;;5.70;99.90;;;;;;4338658;32;20089;-58
2021/04/22 03:12:54;;;;;;;78.57;11.05;;;5.80;99.90;;;;;;4338930;32;20485;-59
2021/04/22 03:15:21;;;;;;;87.95;12.30;;;5.70;99.90;;;;;;4347940;32;20157;-57
2021/04/22 03:17:48;;;;;;;75.10;11.77;;;5.80;99.90;;;;;;4311185;32;20074;-58
2021/04/22 03:20:15;;;;;;;80.40;12.30;;;5.80;99.90;;;;;;4347489;32;20063;-59
2021/04/22 03:22:42;;;;;;;78.85;13.05;;;5.80;99.90;;;;;;4299989;32;20126;-59
2021/04/22 03:25:10;;;;;;;77.03;10.32;;;5.80;99.90;;;;;;4325149;32;20587;-59
2021/04/22 03:27:36;;;;;;;79.82;12.05;;;5.90;99.90;;;;;;4315734;32;20078;-58
2021/04/22 03:30:08;;;;;;;73.25;10.32;;;5.80;99.90;;;;;;4325338;32;20490;-58
2021/04/22 03:32:35;;;;;;;63.30;9.88;;;5.90;99.90;;;;;;4314234;32;20081;-58
2021/04/22 03:35:03;;;;;;;75.85;10.27;;;5.80;99.90;;;;;;4325315;32;20492;-58
2021/04/22 03:37:30;;;;;;;51.67;7.95;;;5.90;99.90;;;;;;4350149;32;20144;-59
2021/04/22 03:39:58;;;;;;;65.82;9.13;;;6.00;99.90;;;;;;4349910;32;20604;-59
2021/04/22 03:42:24;;;;;;;72.78;9.75;;;5.90;99.90;;;;;;4338141;32;20516;-58
2021/04/22 03:44:50;;;;;;;67.32;9.93;;;6.00;99.90;;;;;;4337981;32;20069;-57
2021/04/22 03:47:16;;;;;;;64.93;9.80;;;6.00;99.90;;;;;;4325746;32;20150;-58
2021/04/22 03:49:43;;;;;;;63.90;9.85;;;6.10;99.90;;;;;;4350639;32;20159;-58
2021/04/22 03:52:13;;;;;;;67.62;10.15;;;6.00;99.90;;;;;;4337877;32;20074;-58
2021/04/22 03:54:39;;;;;;;72.28;9.38;;;6.00;99.90;;;;;;4325444;32;20290;-57
2021/04/22 03:57:06;;;;;;;52.22;9.13;;;6.00;99.90;;;;;;4325496;32;20065;-58
2021/04/22 03:59:32;;;;;;;57.72;8.77;;;6.00;99.90;;;;;;4349883;32;20618;-58
2021/04/22 04:01:59;;;;;;;54.60;8.65;;;6.00;99.90;;;;;;4325435;32;20071;-58
2021/04/22 04:04:25;;;;;;;65.22;10.00;;;6.00;99.90;;;;;;4330114;32;20066;-57
2021/04/22 04:06:51;;;;;;;55.22;9.25;;;6.00;99.90;;;;;;4340692;32;20082;-59
2021/04/22 04:09:17;;;;;;;58.80;8.93;;;6.00;99.90;;;;;;4349726;32;20155;-58
2021/04/22 04:11:43;;;;;;;60.55;8.95;;;6.10;99.90;;;;;;4325076;32;20082;-58
2021/04/22 04:14:10;;;;;;;45.67;9.25;;;6.20;99.90;;;;;;4356540;32;20098;-58
2021/04/22 04:16:36;;;;;;;50.85;7.97;;;6.20;99.90;;;;;;4364267;32;20505;-57
2021/04/22 04:19:03;;;;;;;63.30;9.75;;;6.20;99.90;;;;;;4352495;32;20081;-58
2021/04/22 04:21:29;;;;;;;54.15;9.10;;;6.20;99.90;;;;;;4339519;32;20074;-58
2021/04/22 04:23:56;;;;;;;58.63;8.68;;;6.30;99.90;;;;;;4328178;32;20082;-59
2021/04/22 04:26:22;;;;;;;50.30;8.63;;;6.30;99.90;;;;;;4364577;32;20086;-59
2021/04/22 04:28:50;;;;;;;63.53;9.02;;;6.30;99.90;;;;;;4364385;32;20499;-58
2021/04/22 04:31:16;;;;;;;49.40;8.00;;;6.30;99.90;;;;;;4352427;32;20059;-58
2021/04/22 04:33:43;;;;;;;53.45;8.13;;;6.30;99.90;;;;;;4327755;32;20070;-58
2021/04/22 04:36:09;;;;;;;44.60;7.65;;;6.40;99.90;;;;;;4351854;32;20138;-58
2021/04/22 04:38:35;;;;;;;61.78;10.00;;;6.30;99.90;;;;;;4339779;32;20081;-59
2021/04/22 04:41:02;;;;;;;35.92;6.80;;;6.40;99.90;;;;;;4339425;32;20152;-58
2021/04/22 04:43:28;;;;;;;52.62;10.88;;;6.30;99.90;;;;;;4351645;32;20065;-57
2021/04/22 04:45:54;;;;;;;52.90;8.27;;;6.30;99.90;;;;;;4351806;32;20059;-58
2021/04/22 04:48:20;;;;;;;41.25;7.68;;;6.40;99.90;;;;;;4363731;32;20153;-58
2021/04/22 04:50:47;;;;;;;43.42;8.20;;;6.50;99.90;;;;;;4363985;32;20090;-58
2021/04/22 04:53:13;;;;;;;45.35;8.23;;;6.40;99.90;;;;;;4363942;32;20058;-58
2021/04/22 04:55:39;;;;;;;59.33;8.63;;;6.50;99.90;;;;;;4351732;32;20074;-58
2021/04/22 04:58:05;;;;;;;67.12;10.57;;;6.50;99.90;;;;;;4352388;32;20081;-58
2021/04/22 05:00:31;;;;;;;49.10;7.18;;;6.50;99.90;;;;;;4363298;32;20542;-58
2021/04/22 05:02:57;;;;;;;51.50;8.13;;;6.50;99.90;;;;;;4363837;32;20154;-58
2021/04/22 05:05:24;;;;;;;51.37;8.35;;;6.50;99.90;;;;;;4339104;32;20081;-58
2021/04/22 05:07:50;;;;;;;40.25;7.47;;;6.50;99.90;;;;;;4351835;32;20518;-58
2021/04/22 05:10:17;;;;;;;56.55;8.65;;;6.50;99.90;;;;;;4351827;32;20161;-57
2021/04/22 05:12:43;;;;;;;36.92;7.57;;;6.50;99.90;;;;;;4341628;32;20077;-57
2021/04/22 05:15:10;;;;;;;52.28;8.57;;;6.70;99.90;;;;;;4338614;32;20066;-57
2021/04/22 05:17:36;;;;;;;55.58;8.05;;;6.50;99.90;;;;;;4336606;32;20074;-57
2021/04/22 05:20:05;;;;;;;54.83;7.80;;;6.60;99.90;;;;;;4336389;32;20067;-59
2021/04/22 05:22:31;;;;;;;53.00;8.55;;;6.60;99.90;;;;;;4324465;32;20089;-58
2021/04/22 05:24:57;;;;;;;54.83;8.63;;;6.70;99.90;;;;;;4312351;32;20076;-57
2021/04/22 05:27:24;;;;;;;57.00;8.52;;;6.70;99.90;;;;;;4336380;32;20073;-58
2021/04/22 05:29:50;;;;;;;50.33;8.52;;;6.70;99.90;;;;;;4336285;32;20082;-57
2021/04/22 05:32:16;;;;;;;47.50;9.18;;;6.90;99.90;;;;;;4336192;32;20086;-58
2021/04/22 05:34:43;;;;;;;56.47;9.27;;;6.90;99.90;;;;;;4336266;32;20081;-57
2021/04/22 05:37:09;;;;;;;61.45;9.20;;;7.10;99.90;;;;;;4349115;32;20155;-58
2021/04/22 05:39:35;;;;;;;54.78;7.90;;;7.20;99.90;;;;;;4348822;32;20163;-58
2021/04/22 05:42:02;;;;;;;51.75;8.23;;;7.10;99.90;;;;;;4348354;32;20074;-58
2021/04/22 05:44:28;;;;;;;49.67;5.85;;;7.30;99.90;;;;;;4336497;32;20175;-58
2021/04/22 05:46:54;;;;;;;43.97;6.75;;;7.20;99.90;;;;;;4347274;32;20464;-59
2021/04/22 05:49:21;;;;;;;48.13;6.82;;;7.60;99.90;;;;;;4343848;32;20081;-59
2021/04/22 05:51:47;;;;;;;63.50;10.45;;;7.80;99.90;;;;;;4349960;32;20076;-58
2021/04/22 05:54:13;;;;;;;56.75;9.07;;;7.60;99.90;;;;;;4334437;32;20074;-58
2021/04/22 05:56:39;;;;;;;67.50;11.35;;;8.00;99.90;;;;;;4356550;32;20543;-60
2021/04/22 05:59:06;;;;;;;55.88;7.93;;;7.60;99.90;;;;;;4332158;32;20136;-57
2021/04/22 06:01:32;;;;;;;51.47;8.45;;;7.60;99.90;;;;;;4360461;32;20072;-61
2021/04/22 06:03:59;;;;;;;46.97;8.57;;;7.50;99.90;;;;;;4348263;32;20521;-59
2021/04/22 06:06:25;;;;;;;59.53;8.55;;;7.60;99.90;;;;;;4366992;32;20074;-61
2021/04/22 06:08:51;;;;;;;49.38;8.52;;;7.90;99.90;;;;;;4348231;32;20174;-60
2021/04/22 06:11:18;;;;;;;43.67;7.55;;;7.60;99.90;;;;;;4341784;32;20070;-61
2021/04/22 06:13:44;;;;;;;44.25;6.80;;;7.50;99.90;;;;;;4334492;32;20164;-61
2021/04/22 06:16:11;;;;;;;31.65;5.47;;;7.50;99.90;;;;;;4355001;32;20155;-60
2021/04/22 06:18:37;;;;;;;51.55;7.87;;;7.40;99.90;;;;;;4338700;32;20081;-60
2021/04/22 06:21:03;;;;;;;46.22;7.68;;;7.60;99.90;;;;;;4329397;32;20065;-62
2021/04/22 06:23:29;;;;;;;45.90;7.10;;;7.70;99.90;;;;;;4346254;32;20074;-61
2021/04/22 06:25:56;;;;;;;30.95;5.05;;;7.60;99.90;;;;;;4336163;32;20081;-61
2021/04/22 06:28:22;;;;;;;44.72;8.35;;;7.50;99.90;;;;;;4324902;32;20078;-60
2021/04/22 06:30:49;;;;;;;42.67;6.60;;;8.00;99.90;;;;;;4348711;32;20070;-60
2021/04/22 06:33:16;;;;;;;46.00;8.15;;;8.00;99.90;;;;;;4323506;32;20610;-60
2021/04/22 06:35:42;;;;;;;47.83;7.60;;;8.00;99.90;;;;;;4335236;32;20093;-61
2021/04/22 06:38:09;;;;;;;47.78;8.73;;;8.30;99.90;;;;;;4346730;32;20070;-60
2021/04/22 06:40:36;;;;;;;55.20;7.93;;;8.60;99.90;;;;;;4354960;32;20078;-62
2021/04/22 06:43:02;;;;;;;48.25;7.50;;;8.80;99.90;;;;;;4330868;32;20452;-61
2021/04/22 06:45:28;;;;;;;37.33;6.82;;;9.30;99.90;;;;;;4341726;32;20184;-62
2021/04/22 06:47:54;;;;;;;50.83;8.82;;;9.20;99.90;;;;;;4343250;32;20073;-60
2021/04/22 06:50:22;;;;;;;50.12;7.70;;;9.30;99.90;;;;;;4323149;32;20156;-60
2021/04/22 06:52:49;;;;;;;53.70;8.75;;;9.20;99.90;;;;;;4342813;32;20067;-59
2021/04/22 06:55:21;;;;;;;50.00;9.15;;;9.90;99.90;;;;;;4334422;32;20055;-60
2021/04/22 06:57:48;;;;;;;61.47;9.48;;;9.00;99.90;;;;;;4349662;32;20074;-59
2021/04/22 07:00:19;;;;;;;51.63;9.47;;;8.90;99.90;;;;;;4337297;32;20078;-61
2021/04/22 07:02:47;;;;;;;49.47;7.87;;;9.20;99.90;;;;;;4351836;32;20168;-60
2021/04/22 07:05:14;;;;;;;44.78;7.60;;;8.90;99.90;;;;;;4338473;32;20061;-60
2021/04/22 07:07:41;;;;;;;56.17;8.48;;;8.80;99.90;;;;;;4321952;32;20157;-58
2021/04/22 07:10:09;;;;;;;49.45;9.02;;;8.60;99.90;;;;;;4320260;32;20086;-60
2021/04/22 07:12:35;;;;;;;33.33;6.87;;;8.80;99.90;;;;;;4332890;32;20057;-60
2021/04/22 07:15:02;;;;;;;35.50;6.87;;;8.80;99.90;;;;;;4358971;32;20142;-58
2021/04/22 07:17:28;;;;;;;43.05;6.82;;;8.90;99.90;;;;;;4353923;32;20086;-60
2021/04/22 07:19:55;;;;;;;53.85;7.75;;;8.90;99.90;;;;;;4334607;32;20450;-59
2021/04/22 07:22:23;;;;;;;47.45;7.10;;;8.90;99.90;;;;;;4318008;32;20232;-59
2021/04/22 07:24:49;;;;;;;40.20;6.80;;;8.90;99.90;;;;;;4325072;32;20067;-59
2021/04/22 07:27:15;;;;;;;39.80;7.25;;;9.20;99.90;;;;;;4349766;32;20105;-60
2021/04/22 07:29:45;;;;;;;43.03;7.40;;;9.20;99.90;;;;;;4350902;32;20579;-58
2021/04/22 07:32:19;;;;;;;38.25;6.78;;;9.30;99.90;;;;;;4326807;32;20144;-59
2021/04/22 07:34:47;;;;;;;45.47;7.18;;;9.90;99.90;;;;;;4337434;32;20497;-60
2021/04/22 07:37:15;;;;;;;41.63;8.05;;;9.70;99.90;;;;;;4337130;32;20078;-59
2021/04/22 07:39:42;;;;;;;40.47;7.95;;;9.70;99.90;;;;;;4335371;32;20150;-59
2021/04/22 07:42:08;;;;;;;41.30;7.60;;;9.60;99.90;;;;;;4337760;32;20159;-57
2021/04/22 07:44:35;;;;;;;51.95;7.22;;;9.70;99.90;;;;;;4338141;32;20100;-58
2021/04/22 07:47:02;;;;;;;64.40;8.75;;;9.90;99.90;;;;;;4377495;32;20105;-59
2021/04/22 07:49:28;;;;;;;76.03;11.02;;;9.80;99.90;;;;;;4353164;32;20497;-59
2021/04/22 07:51:55;;;;;;;60.67;9.10;;;9.70;99.90;;;;;;4339955;32;20077;-59
2021/04/22 07:54:22;;;;;;;59.38;9.65;;;10.00;99.90;;;;;;4351927;32;20074;-59
2021/04/22 07:56:48;;;;;;;54.05;9.45;;;10.40;99.90;;;;;;4364148;32;20074;-58
2021/04/22 07:59:15;;;;;;;71.25;10.05;;;10.50;99.90;;;;;;4327573;32;20141;-58
2021/04/22 08:01:41;;;;;;;79.60;11.57;;;10.80;99.90;;;;;;4327151;32;20096;-59
2021/04/22 08:04:07;;;;;;;74.50;11.80;;;10.80;99.90;;;;;;4351761;32;20073;-59
2021/04/22 08:06:34;;;;;;;99.25;12.43;;;10.60;99.90;;;;;;4339623;32;20433;-60
2021/04/22 08:09:01;;;;;;;51.05;8.57;;;10.20;99.90;;;;;;4327146;32;20589;-59
2021/04/22 08:11:27;;;;;;;87.68;10.90;;;11.20;99.90;;;;;;4351551;32;20460;-57
2021/04/22 08:13:54;;;;;;;89.87;11.45;;;10.70;99.90;;;;;;4346324;32;20070;-59
2021/04/22 08:16:20;;;;;;;97.12;12.07;;;10.70;99.90;;;;;;4325041;32;20142;-59
2021/04/22 08:18:46;;;;;;;80.75;11.75;;;10.70;99.90;;;;;;4349155;32;20074;-60
2021/04/22 08:21:13;;;;;;;83.80;11.50;;;10.50;99.90;;;;;;4336707;32;20438;-58
2021/04/22 08:23:40;;;;;;;98.72;12.65;;;10.70;99.90;;;;;;4348986;32;20089;-58
2021/04/22 08:26:10;;;;;;;79.03;11.00;;;10.70;99.90;;;;;;4351541;32;20497;-61
2021/04/22 08:28:37;;;;;;;84.32;11.68;;;11.20;99.90;;;;;;4364265;32;20075;-58
2021/04/22 08:31:12;;;;;;;94.32;12.00;;;11.40;99.90;;;;;;4337293;32;20077;-58
2021/04/22 08:33:39;;;;;;;74.12;10.55;;;10.90;99.90;;;;;;4345691;32;20055;-61
2021/04/22 08:36:07;;;;;;;75.43;10.45;;;11.10;99.90;;;;;;4342979;32;20513;-60
2021/04/22 08:38:33;;;;;;;70.40;9.43;;;10.60;99.90;;;;;;4357389;32;20086;-60
2021/04/22 08:41:00;;;;;;;51.45;7.95;;;10.90;99.90;;;;;;4335001;32;20109;-60
2021/04/22 08:43:26;;;;;;;55.28;9.15;;;10.90;99.90;;;;;;4341658;32;20073;-60
2021/04/22 08:45:53;;;;;;;71.25;10.48;;;11.00;99.90;;;;;;4324544;32;20086;-59
2021/04/22 08:48:20;;;;;;;53.15;8.43;;;10.60;99.90;;;;;;4315277;32;20578;-60
2021/04/22 08:50:48;;;;;;;51.90;8.00;;;10.80;99.90;;;;;;4332383;32;20509;-58
2021/04/22 08:53:22;;;;;;;48.15;6.90;;;10.90;99.90;;;;;;4354061;32;20070;-59
2021/04/22 08:55:48;;;;;;;49.70;8.13;;;11.40;99.90;;;;;;4342249;32;20086;-59
2021/04/22 08:58:14;;;;;;;47.13;8.95;;;11.00;99.90;;;;;;4368334;32;20114;-59
2021/04/22 09:01:01;;;;;;;63.58;7.80;;;11.20;99.90;;;;;;4324257;32;20066;-58
2021/04/22 09:03:27;;;;;;;50.30;8.30;;;11.80;99.90;;;;;;4345063;32;20145;-59
2021/04/22 09:05:53;;;;;;;60.83;9.05;;;12.40;99.90;;;;;;4371507;32;20089;-58
2021/04/22 09:08:31;;;;;;;53.83;8.40;;;11.80;99.90;;;;;;4338647;32;20110;-60
2021/04/22 09:10:58;;;;;;;54.55;8.43;;;11.60;99.90;;;;;;4361222;32;20159;-60
2021/04/22 09:13:25;;;;;;;59.45;9.45;;;11.70;99.90;;;;;;4355165;32;20094;-59
2021/04/22 09:16:07;;;;;;;33.70;5.95;;;12.10;99.90;;;;;;4333214;32;20077;-60
2021/04/22 09:18:44;;;;;;;60.60;8.63;;;12.70;99.90;;;;;;4330386;32;20074;-61
2021/04/22 09:21:23;;;;;;;66.62;8.98;;;12.50;99.90;;;;;;4335282;32;20079;-60
2021/04/22 09:24:19;;;;;;;60.88;8.70;;;12.50;99.90;;;;;;4341960;32;20501;-61
2021/04/22 09:26:53;;;;;;;63.60;8.95;;;12.50;99.90;;;;;;4318661;32;20133;-59
2021/04/22 09:29:44;;;;;;;46.60;8.50;;;12.40;99.90;;;;;;4335781;32;20079;-56
2021/04/22 09:32:24;;;;;;;52.38;8.00;;;12.30;99.90;;;;;;4360929;32;20112;-58
2021/04/22 09:35:10;;;;;;;50.50;9.75;;;12.20;99.90;;;;;;4322797;32;20087;-57
2021/04/22 09:37:40;;;;;;;57.70;9.30;;;12.70;99.90;;;;;;4356106;32;20132;-61
2021/04/22 09:43:01;;;;;;;51.53;7.23;;;12.90;99.90;;;;;;3858220;37;20504;-60
2021/04/22 09:45:29;;;;;;;45.58;8.13;;;12.60;99.90;;;;;;4369451;32;20218;-58
2021/04/22 09:47:56;;;;;;;47.72;7.55;;;12.90;99.90;;;;;;4374602;32;20095;-59
2021/04/22 09:50:27;;;;;;;59.25;9.18;;;12.50;99.90;;;;;;4376897;32;20069;-58
2021/04/22 09:52:58;;;;;;;49.45;8.38;;;13.30;99.90;;;;;;4375018;32;20580;-58
2021/04/22 09:55:29;;;;;;;54.20;8.05;;;14.00;99.90;;;;;;4371403;32;20536;-58
2021/04/22 09:57:56;;;;;;;55.55;10.20;;;13.80;99.90;;;;;;4386292;32;20053;-59
2021/04/22 10:00:31;;;;;;;42.62;7.53;;;13.40;99.90;;;;;;4373438;32;20085;-60
2021/04/22 10:03:09;;;;;;;48.87;7.30;;;13.50;99.90;;;;;;4364359;32;20090;-59
2021/04/22 10:05:38;;;;;;;51.28;8.32;;;13.30;99.90;;;;;;4402982;32;20108;-62
2021/04/22 10:08:12;;;;;;;53.72;8.88;;;13.80;99.90;;;;;;4384691;32;20073;-58
2021/04/22 10:10:54;;;;;;;54.38;7.15;;;13.60;99.90;;;;;;4386557;32;20077;-62
2021/04/22 10:13:21;;;;;;;55.20;7.68;;;14.00;99.90;;;;;;4377538;32;20708;-60
2021/04/22 10:15:54;;;;;;;34.50;7.62;;;13.80;99.90;;;;;;4377776;32;20078;-57
2021/04/22 10:18:21;;;;;;;42.60;7.32;;;14.00;99.90;;;;;;4380949;32;20471;-60
2021/04/22 10:20:49;;;;;;;44.50;7.40;;;13.80;99.90;;;;;;4367808;32;20077;-59
2021/04/22 10:23:15;;;;;;;26.73;6.30;;;13.90;99.90;;;;;;4366766;32;20109;-60
2021/04/22 10:25:43;;;;;;;30.95;7.30;;;14.00;99.90;;;;;;4389583;32;20492;-59
2021/04/22 10:28:11;;;;;;;35.33;6.45;;;14.30;99.90;;;;;;4361459;32;20518;-57
2021/04/22 10:30:41;;;;;;;48.20;9.30;;;13.90;99.90;;;;;;4377892;32;20072;-58
2021/04/22 10:33:08;;;;;;;49.97;9.10;;;14.10;99.90;;;;;;4361507;32;20073;-60
2021/04/22 10:35:38;;;;;;;51.22;8.57;;;14.10;99.90;;;;;;4357689;32;20529;-61
2021/04/22 10:38:05;;;;;;;44.53;6.10;;;14.10;99.90;;;;;;4371760;32;20081;-60
2021/04/22 10:40:44;;;;;;;38.47;7.12;;;13.80;99.90;;;;;;4362809;32;20178;-61
2021/04/22 10:43:28;;;;;;;35.25;6.65;;;14.00;99.90;;;;;;4356177;32;20077;-60
2021/04/22 10:45:56;;;;;;;39.58;7.22;;;14.20;99.90;;;;;;4360560;32;20187;-60
2021/04/22 10:48:23;;;;;;;42.50;6.95;;;14.70;99.90;;;;;;4381920;32;20093;-59
2021/04/22 10:50:56;;;;;;;36.45;7.00;;;14.40;99.90;;;;;;4344899;32;20066;-61
2021/04/22 10:53:23;;;;;;;42.25;8.32;;;14.80;99.90;;;;;;4339860;32;20220;-60
2021/04/22 10:55:52;;;;;;;44.38;9.02;;;14.90;99.90;;;;;;4347883;32;20078;-60
2021/04/22 10:58:27;;;;;;;30.35;6.22;;;14.70;99.90;;;;;;4364108;32;20857;-58
2021/04/22 11:01:04;;;;;;;39.05;7.25;;;14.30;99.90;;;;;;4346529;32;20118;-61
2021/04/22 11:03:39;;;;;;;35.63;7.15;;;14.20;99.90;;;;;;4368057;32;20073;-60
2021/04/22 11:06:20;;;;;;;41.90;7.57;;;14.40;99.90;;;;;;4355535;32;20074;-58
2021/04/22 11:08:49;;;;;;;33.55;7.07;;;14.60;99.90;;;;;;4353730;32;20222;-61
2021/04/22 11:11:22;;;;;;;42.35;5.85;;;14.60;99.90;;;;;;4360625;32;20087;-59
2021/04/22 11:13:50;;;;;;;33.83;5.55;;;14.80;99.90;;;;;;4365790;32;20090;-58
2021/04/22 11:16:27;;;;;;;27.75;6.22;;;15.30;99.90;;;;;;4363467;32;20068;-59
2021/04/22 11:18:53;;;;;;;22.80;4.78;;;14.90;99.90;;;;;;4336327;32;20085;-64
2021/04/22 11:21:31;;;;;;;46.72;7.00;;;15.30;99.90;;;;;;4360514;32;20086;-62
2021/04/22 11:24:00;;;;;;;47.72;7.95;;;15.20;99.90;;;;;;4365971;32;20063;-63
2021/04/22 11:26:31;;;;;;;38.17;6.07;;;15.40;99.90;;;;;;4355166;32;20073;-63
2021/04/22 11:29:10;;;;;;;39.83;6.87;;;15.40;99.90;;;;;;4354242;32;20109;-65
2021/04/22 11:31:54;;;;;;;50.10;6.43;;;15.00;99.90;;;;;;4346050;32;20070;-65
2021/04/22 11:34:34;;;;;;;34.60;5.85;;;15.30;99.90;;;;;;4349424;32;20078;-61
2021/04/22 11:37:04;;;;;;;28.65;6.12;;;15.60;99.90;;;;;;4332478;32;20094;-60
2021/04/22 11:39:35;;;;;;;40.90;8.15;;;15.10;99.90;;;;;;4326553;32;20158;-60
2021/04/22 11:42:02;;;;;;;40.58;7.82;;;14.90;99.90;;;;;;4339665;32;20552;-60
2021/04/22 11:44:52;;;;;;;34.97;7.05;;;15.10;99.90;;;;;;4362951;32;20075;-61
2021/04/22 11:47:29;;;;;;;34.20;7.45;;;15.20;99.90;;;;;;4371724;32;20173;-63
2021/04/22 11:50:16;;;;;;;26.70;5.87;;;15.10;99.90;;;;;;4363811;32;20093;-61
2021/04/22 11:52:55;;;;;;;38.53;6.78;;;15.60;99.90;;;;;;4364377;32;20121;-61
2021/04/22 11:55:25;;;;;;;34.42;6.53;;;15.60;99.90;;;;;;4355741;32;20114;-61
2021/04/22 11:57:59;;;;;;;27.27;7.22;;;15.20;99.90;;;;;;4348529;32;20101;-63
2021/04/22 12:00:32;;;;;;;35.58;6.30;;;15.40;99.90;;;;;;4347030;32;20051;-62
2021/04/22 12:02:58;;;;;;;28.42;6.65;;;15.20;99.90;;;;;;4364236;32;20504;-66
2021/04/22 12:05:25;;;;;;;29.52;5.22;;;15.60;99.90;;;;;;4345865;32;20596;-65
2021/04/22 12:08:03;;;;;;;20.20;5.68;;;15.20;99.90;;;;;;4352788;32;20448;-63
2021/04/22 12:10:31;;;;;;;19.40;5.05;;;15.40;99.90;;;;;;4336333;32;20194;-63
2021/04/22 12:13:13;;;;;;;22.50;5.62;;;15.10;99.90;;;;;;4348335;32;20171;-65
2021/04/22 12:15:51;;;;;;;19.95;4.85;;;15.30;99.90;;;;;;4355774;32;20106;-58
2021/04/22 12:18:42;;;;;;;27.92;6.03;;;15.50;99.90;;;;;;4349895;32;20102;-61
2021/04/22 12:21:20;;;;;;;32.83;5.12;;;15.60;99.90;;;;;;4355350;32;20066;-61
2021/04/22 12:23:52;;;;;;;33.58;5.35;;;15.80;99.10;;;;;;4356995;32;20129;-62
2021/04/22 12:26:20;;;;;;;29.87;5.82;;;15.60;97.90;;;;;;4333326;32;20102;-64
2021/04/22 12:29:01;;;;;;;35.08;6.12;;;15.40;97.20;;;;;;4362981;32;20075;-63
2021/04/22 12:31:34;;;;;;;33.45;6.53;;;15.10;98.00;;;;;;4347958;32;20108;-62
2021/04/22 12:34:24;;;;;;;38.22;5.78;;;15.40;97.20;;;;;;4371013;32;20113;-65
2021/04/22 12:37:04;;;;;;;38.92;5.87;;;15.30;95.90;;;;;;4346674;32;20074;-66
2021/04/22 12:39:37;;;;;;;31.80;7.25;;;15.40;94.50;;;;;;4347810;32;20509;-68
2021/04/22 12:42:16;;;;;;;35.63;6.00;;;15.20;94.70;;;;;;4364358;32;20093;-75
2021/04/22 12:45:00;;;;;;;31.92;6.05;;;15.30;95.30;;;;;;4354539;32;20564;-69
2021/04/22 12:47:45;;;;;;;35.55;6.60;;;14.70;94.40;;;;;;4349347;32;20116;-65
2021/04/22 12:50:32;;;;;;;31.70;5.57;;;14.70;93.70;;;;;;4376258;32;20098;-63
2021/04/22 12:53:17;;;;;;;36.83;5.57;;;14.60;90.60;;;;;;4360491;32;20537;-63
2021/04/22 12:56:04;;;;;;;42.85;6.37;;;14.80;89.30;;;;;;4380492;32;20076;-64